Home About Us " Services " Contact Us
"Racer's Hub The Racer's Hub Privacy":"Sitemap" "



  "Events """ " Register """ " Results """ " Submit an Event """ " News """ " Terms
Upcoming Races
« January 2018 »
SuMoTuWeThFrSa
 123456
78910111213
14151617181920
21222324252627
28293031 


View Results


Warning: mysql_result(): Unable to jump to row 0 on MySQL result index 17 in /hermes/bosnaweb20a/b2497/ipw.theracer1/public_html/results_view.php on line 174
2016 Lavaman Triathlon
April 10, 2016
 
Text report with splits
Searchable (shown)

Enter Keyword: (Bib Number, First Name, Last Name, etc.)

Filters:
Bib Number
Sort UpSort Down
First Name
Sort UpSort Down
Last Name
Sort UpSort Down
Overall Place
Sort UpSort Down
Division
Sort UpSort Down
Gender
Sort UpSort Down
City
Sort UpSort Down
Time
Sort UpSort Down
3MattLieto1M3539MBEND1:54:24
1BenWilliams2M3034MKAILUA1:56:18
4ShawnWilyman3M2529MVICTORIA1:56:19
15ChrisGregory4M3034MHILO1:58:21
13MarcusFarris5M2529MFAIRBANKS2:03:26
272DerkDe Korver6M3034MSAN FRANCISCO2:03:35
583JoseGraca7M4044MUBATUBA2:04:42
86CorbynJahn8M2529MANCHORAGE2:04:47
10DavidWild9M2529MKEALAKEKUA2:06:26
5SamCorace10M3034MCARLSBAD2:07:11
445JasonLamoreaux11M3539MANCHORAGE2:09:26
942ScottDavis12M5054MWESTLAKE VILLAG2:10:14
11DavisKaahanui13M2024MWAIALUA2:10:35
18KinseyLaine14F2529FFAIRBANKS2:11:03
2TimMarr15M3539MKAILUA-KONA2:11:33
938TheodoreCasterline16M5054MPORTLAND2:11:49
945DerekHopkins17M5054MVICTORIA2:14:27
754LucMorin18M4549MST-ANTOINE-DE T2:14:51
49MalcolmDavis19M119MKAPAAU2:14:54
968MikeFerreira20M5054MKANEOHE2:15:14
65DanGampon21M2024MKAILUA KONA2:16:00
551MichaelDecarli22M4044MKAILUA-KONA2:16:11
46LawrenceBarrett23M119MHOLUALOA2:18:13
53CodyRanfranz24M119MKAILUA KONA2:18:20
209ClaytonHarrison25M3034MANCHORAGE2:18:25
901KathyWinkler26F5054FMILL VALLEY2:18:45
644AdamAnkrum27M4044MHOLUALOA2:18:55
553ShannonFore28M4044MANCHORAGE2:20:09
636RebeccaMcKee29F4044FANCHORAGE2:20:26
406JayKrieger30M3539MSIDNEY2:20:29
378Jon PaulRamirez31M3539MBELLEVUE2:20:33
1212DonBaldassari32M5559MKAILUA-KONA2:22:12
751KevinHause33M4549MHONOLULU2:22:28
837BartonGrenning34M4549MORINDA2:22:43
1184MichaelCatlin35M5559MNORTH TUSTIN2:22:57
155KelsiCampos36F3034FWAHIAWA2:24:03
1226LeePiche37M5559MWAIKOLOA2:24:13
52MajdiMariano38M119MKAMUELA2:24:32
668TrevorStorrs39M4044MANCHORAGE2:24:33
559AndySchmid Walters40M4044MKAILUA-KONA2:25:13
419DaveWhitfield41M3539MANCHORAGE2:25:25
345Scott THanchar42M3539MVENTURA2:25:30
665JoshuaRoss43M4044MPALO ALTO2:25:33
7CarrieMcCoy44F3034FGAHANNA2:25:35
661AlexanderKaplinsky45M4044MKILAUEA2:25:36
571LarrellLockard46F4044FANCHORAGE2:25:38
526MarkPowers47M4044MANCHORAGE2:25:40
366KristinOld48F3539FKAILUA-KONA2:26:09
352ChrisOverton49M3539MDENVER2:26:13
563JenniferEdwards50F4044FBLACK DIAMOND2:26:17
505AnitaLeao51F4044FKAILUA-KONA2:26:31
470SylviaRavaglia52F3539FKAMUELA2:26:37
19SaraBloom53F2529FKAILUA KONA2:26:45
176JosephHodnette54M3034MKAPOLEI2:27:06
881ErinCarson55F5054FBOULDER2:27:23
961LisaKeller56F5054FANCHORAGE2:27:28
478EdwardIgnacio57M3539MHILO2:28:08
207ZachDavison58M3034MSEATTLE2:28:46
1172EllenHart59F5559FDENVER2:28:48
282PaulPoliteski60M4044MVICTORIA2:29:06
1214GeorgesBuergi61M5559MKUESSNACHT AM R2:29:11
442NickHopman62M3539MSAN FRANCISCO2:29:32
953BodilArlander63F5054FBELVEDERE2:29:44
718MarkRavaglia64M4549MKAMUELA2:29:48
745PaulBlaber65M4549MKAILUA KONA2:30:58
181JcTurner66M3034MKEAUHOU2:31:04
16WinonaChen67F2529FKAILUA-KONA2:31:15
306LindseyDymond68M3034MKAILUA2:31:39
1160WilliamMcMahon69M5559MVOLCANO2:32:17
410TopherLorette70M3539MBROOKLYN2:32:41
1082AnthonyReate71M5559MSONOMA2:32:50
237KamuelaGuth72M3034MLAHAINA2:32:51
335DiegoAlvarez73M3539MCALGARY2:32:53
905MichaelHoffort74M5054MBUENA VISTA2:33:04
756NetPayne75M4549MATLANTA2:33:04
1245JohnFerguson76M6064MANCHORAGE2:33:15
915JonathanTay77M5054MRENO2:33:22
1185DuaneFranks78M5559MFAIRFAX2:33:23
907KrisKiser79M5054MKAILUA KONA2:33:37
950JoeWedemann80M5054MKEAAU2:34:08
659JacobHead81M4044MKAILUA KONA2:34:14
169BeataTou82F3034FKAILUA KONA2:34:26
662SeanMiller83M4044MSOLANA BEACH2:34:34
175AlexGriffin84M3034MKAILUA KONA2:34:35
793SamBaer85M4549MKAILUA KONA2:34:45
37JosiahRanderson86M119MKAILUA KONA2:34:46
866BuddyArnheim87M4549MLOS ALTOS HILLS2:34:53
936BradBartelt88M5054MKAILUA2:35:15
313MicahPigott89M3034MSEATTLE2:35:17
806MarkStevens90M4549MANCHORAGE2:35:29
60ChristopherPrater91M119MKAILUA KONA2:35:55
616MikeBreen92M4044MHILLSBOROUGH2:35:57
1284TomHennessy93M6064MDENVER2:35:58
493RyanWiswesser94M3539MGIRDWOOD2:36:04
150JairoMiche95M2529MKAMUELA2:36:11
757JeffRichardson96M4549MKAMUELA2:36:12
178BrettMcChesney97M3034MSEATTLE2:36:28
595DavidZimmerman98M4044MHONOLULU2:37:04
853KirstenKempe99F4549FMOUNTAIN VIEW2:37:05
951WayneYurtin100M5054MSAN JOSE2:37:21
949HaakonThallaug101M5054MWALNUT CREEK2:37:23
1004PhilMcGain102M5054MHAIKU2:37:29
671AustinWatkins103M4044MKAMUELA2:37:30
759ShawnRussett104M4549MSPRUCE GROVE2:37:30
1044NoelMacKisoc105M5054MKAILUA2:37:32
706RobertDean106M4549MWOODSIDE2:38:56
239HestonLiebowitz107M3034MSAN FRANCISCO2:38:58
1189LarryLehmbecker108M5559MCHELAN2:39:01
398AngelaWideman109F3539FKIHEI2:39:01
1324TomGuerin110M6064MKIHEI2:39:04
1323DonaldGeddes111M6064MPORTLAND2:39:17
373PatrickDrassler112M3539MPINETOP2:39:19
545MichelleStarkey113F4044FEL CAJON2:39:29
978DanielSafranek114M5054MANCHORAGE2:39:30
655AndeEdlund115M4044MREDMOND2:39:43
1124StephenMitchell116M5559MCOLORADO SPRING2:40:10
1146AlisonSimmons117F5559FHAIKU2:40:15
403OliverEvangelista118M3539MWAIKOLOA2:40:18
829JenniferWard119F4549FBOULDER2:40:23
1412BruceWacker120M7074MKAILUA-KONA2:40:25
776DoretteFranks121F4549FFAIRFAX2:40:58
374ChrisLamm122M3539MMILPITAS2:41:00
676HalleyBock123F4549FSEATTLE2:41:12
767JamesYoung124M4549MKAMUELA2:41:17
855MelissaLindamood125F4549FBOULDER2:41:20
812LeannCrosby126F4549FKIRKLAND2:41:23
787MarniPinton127F4549FWEST VANCOUVER2:41:30
941BillDavis128M5054MKAPAAU2:41:31
649JosephCosta129M4044MBRUNSWICK2:41:31
1081AaronRamirez130M5559MANCHORAGE2:41:34
1062DeniseRhodes131F5559FMARBLE FALLS2:41:48
1254JeffRippey132M6064MHOOD RIVER2:41:54
1116JeffreyIverslie133M5559MCAPTAIN COOK2:41:57
752MatthewMather134M4549MKAILUA KONA2:42:05
1419EdLetourneau135M7074MHONOLULU2:42:13
734HeidiMcKenna Schmitt136F4549FWAIALUA2:42:17
654WilfredoDuran137M4044MKAILUA-KONA2:42:24
14JonathanBaker138M3034MKAILUA-KONA2:42:30
775SandraFerreira139F4549FKANEOHE2:42:36
639JenniferSlaughter140F4044FANCHORAGE2:42:37
565CorinGentry141F4044FHONOLULU2:42:38
457RachelGillis142F3539FWAIKOLOA2:42:42
895DorothyShearn143F5054FANCHORAGE2:42:42
650MikeCrawford144M4044MCALGARY2:42:48
1283JimDuncan145M6064MCAMARILLO2:43:08
597MelanieAiona146F4044FKAMUELA2:43:08
286KristinaEaton147F3034FANCHORAGE2:43:10
748DonnieEggleston148M4549MWAIKOLOA2:43:11
824AmandaMarks149F4549FLAFAYETTE2:43:30
1162MarkMooney150M5559MTEMPLETON2:43:31
1097JodiMarthaller151F5559FMEDFORD2:43:31
555KazuoIshii152M4044MHONOLULU2:43:35
556ChristopherKennedy153M4044MSEATTLE2:43:36
996JosephBollinger154M5054MKAMUELA2:43:36
1053CatherineFrye155F5559FCAMPBELL2:43:45
1359MichaelKelly156M6569MKAILUA KONA2:43:59
914KevinRooney157M5054MKAILUA KONA2:44:10
926MoniqueJutila158F5054FKIHEI2:44:28
588BruceOng159M4044MKAILUA2:44:33
981KenWhite160M5054MANCHORAGE2:44:56
468TiffanieBird161F3539FANCHORAGE2:44:58
647RyanBerger162M4044MRICHMOND2:45:07
240BrandonMailhot163M3034MKAILUA KONA2:45:12
70NicoleSears164F2024FBRONXVILLE2:45:24
873GlenMallett165M4549MCLAYFIELD2:45:35
51RaganLeslie166M119MKEALAKEKUA2:45:42
801ToshiyukiMochizuki167M4549MWAIKOLOA2:45:54
589BrianPinkston168M4044MANCHORAGE2:45:55
970RonaldGoss169M5054MFAIRFIELD2:45:56
1125SteveShumway170M5559MCOLORADO SPRING2:45:57
411JeremiahMadden171M3539MALBANY2:46:08
672SamWilburn172M4044MHONOKA'A2:46:14
529MarcoTerracciano173M4044MANCHORAGE2:46:25
492MartinWilliams174M3539MNEWARK2:46:27
1276GregoryBerryman175M6064MPUEBLO2:46:32
465Sara KMadden176F3539FALBANY2:46:32
657JeffreyFong177M4044MHONOLULU2:46:36
35BrockImonen178M119MKAMUELA2:46:43
17BeccaHouse179F2529FSEATTLE2:46:43
1123PeterMcIntosh180M5559MMILL VALLEY2:46:46
462MandyLemes181F3539FHAKALAU2:46:50
578JonBoteilho182M4044MPAHOA2:46:55
1173GleeJewell183F5559FKAILUA KONA2:46:55
1288JeffreyMelichar184M6064MLAHAINA2:47:09
317PamelaDreyer185F3539FEAGLE RIVER2:47:11
325TiaLindeman186F3539FWAIKOLOA2:47:19
1122MarkMahaney187M5559MKAMUELA2:47:31
87JohannesOlind188M2529MHONOLULU2:47:34
400ChadWolfe189M3539MOLATHE2:47:35
1256JamesSakai190M6064MKAILUA KONA2:47:45
664BillyRickards191M4044MKAMUELA2:47:51
984KariDavis192F5054FWESTLAKE VILLAG2:48:02
320LaurenHanisch193F3539FLACEY2:48:05
1077KevinMcCabe194M5559MLOS ANGELES2:48:08
1096LisaMarin195F5559FANCHORAGE2:48:11
309AdamHanisch196M3034MLACEY2:48:14
308DavidFurtado197M3034MKAILUA KONA2:48:21
511TovaWolinsky198F4044FRICHMOND2:48:26
788SerenaPuaokalani199F4549FKAILUA KONA2:48:27
452JeremyWithrow200M3539MKAILUA-KONA2:48:42
149AlexKaulins201M2529MVANCOUVER2:48:45
1286StevenLutz202M6064MEAST WENATCHEE2:49:04
163EmmaRea203F3034FSEATTLE2:49:04
94ToshAviero204M2529MKAMUEAL2:49:06
1250RobMurray205M6064MKAILUA KONA2:49:24
1071MarkBissing206M5559MCLIVE2:49:26
47DanielCohen207M119MKAILUA KONA2:49:34
1049TimothyThomas208M5054MANCHORAGE2:49:37
234WendyWidman209F3034FNEW YORK2:49:42
576KatraWedeking210F4044FGIRDWOOD2:49:47
833MikeChase211M4549MLA JOLLA2:49:52
1041RickGammie212M5054MCAMPBELL RIVER2:50:00
1220KenMeyer213M5559MPORTLAND2:50:03
194MichealTuttle214F3034FANCHORAGE2:50:07
273ChrisDesmarais215M3034MCALGARY2:50:08
350BenjaminMilne216M3539MVANCOUVER2:50:14
1131TimWiley217M5559MKAILUA KONA2:50:18
214PaulLeonard218M3034MEWA BEACH2:50:22
736LianeNagata219F4549FANCHORAGE2:50:22
1280DavidConnor220M6064MANCHORAGE2:50:24
348AlikaHoomana221M3539MKAILUA KONA2:50:40
1130SteveWhite222M5559MLA MESA2:50:52
1072JamesBrewer223M5559MANCHORAGE2:50:53
832BrianCarey224M4549MHIGHLANDS RANCH2:50:55
356PhilipStenberg225M3539MSAN FRANCISCO2:51:02
1247PatrickMitchell226M6064MKAILUA-KONA2:51:02
506SarahMoore227F4044FANCHORAGE2:51:08
1128GaryWaterhouse228M5559MARVADA2:51:18
810BrittaAnderson229F4549FEAGLE RIVER2:51:22
270EmilyWiswesser230F3034FGIRDWOOD2:51:23
763TrentTaylor231M4549MANCHORAGE2:51:35
725CareyBallard232F4549FGIRDWOOD2:51:35
560HalbertTam233M4044MMILPITAS2:51:39
1282BalfourDer234M6064MCALGARY2:51:47
43MatthewOstrem235M119MKAMUELA2:51:59
618NicolasDraca236M4044MLOS GATOS2:52:29
1037RogerDow237M5054MSALEM2:52:30
1114WilliamHannmann238M5559MHONOLULU2:52:31
760ShaneSigler239M4549MYAKIMA2:52:34
1033AdamBusek240M5054MKEAAU2:52:35
90AuddieHungerpiller241F2529FHONOLULU2:52:36
522PaulNangle242M4044MANCHORAGE2:52:44
1195WesTurner243M5559MEAGLE RIVER2:53:04
514JeremyBurbank244M4044MNEW YORK2:53:07
585TomHo245M4044MSAN JOSE2:53:10
483ScottOberg246M3539MKEAAU2:53:17
62KatieSeybert247F119FANCHORAGE2:53:22
105CarrieLofts248F2529FANCHORAGE2:53:24
440LaurentiuGrigore249M3539MWAIKOLOA2:53:26
611KellyPasch250F4044FANCHORAGE2:53:28
405JeffHuish251M3539MKAILUA KONA2:53:36
740LoriRussett252F4549FSPRUCE GROVE2:53:37
1258TimTalevich253M6064MNORTH BEND2:53:39
333LeslieShevlin254F3539FSALEM2:53:40
948JohnTaylor255M5054MANCHORAGE2:53:41
623BobMuraski256M4044MKAILUA-KONA2:53:42
859RicciRacela257F4549FKAMUELA2:53:46
1243HeidiSmith258F6064FKAMUELA2:53:51
192DanielleKatz259F3034FFREMONT2:53:54
543ChiaraSingh260F4044FVANCOUVER2:54:12
1259GriffithYamaguchi261M6064MHILO2:54:16
1222JohnMilford262M5559MDEWINTON2:54:23
218JacobSzmuilowicz263M3034MSAN DIEGO2:54:24
1356BobBabbitt264M6569MCARLSBAD2:54:29
1047JeffRadwick265M5054MKAILUA-KONA2:54:32
316PixieAcia266F3539FSANTA MONICA2:54:48
213MaxwellKinkade267M3034MBOSTON2:54:51
517TroyGorostiza268M4044MSAN DIEGO2:54:59
1334EllynBrown269F6064FANCHORAGE2:55:00
615ScottAdams270M4044MWASILLA2:55:00
307AndrewEvans271M3034MWEST HOLLYWOOD2:55:01
461JaimeLawrence272F3539FCHICAGO2:55:01
95JuanEspinal273M2529MKAILUA-KONA2:55:07
54SamuelSachs274M119MTACOMA2:55:12
264JessieRobinson275F3034FWAIKOLOA2:55:15
1177HeidiMooney276F5559FTEMPLETON2:55:17
1135ClaireCoppel277F5559FANCHORAGE2:55:18
960PamelaHarlow278F5054FKAILUA KONA2:55:24
1007CharlesPartee279M5054MLYONS2:55:38
486DavidSchach280M3539MSAN FRANCISCO2:55:40
507JessicaNangle281F4044FANCHORAGE2:55:44
57JantzenHing282M119MKAILUA KONA2:55:47
974TylerKirkendoll283M5054MKAILUA KONA2:56:03
293MelissaLiebowitz284F3034FSAN FRANCISCO2:56:03
369AstridStaneff285F3539FCLYDE HILL2:56:11
58BruceKim286M119MSEOUL2:56:32
508JenniferReinhard287F4044FSAN DIEGO2:56:34
554MichaelGibson288M4044MFAIRBANKS2:56:46
906BrianKeighin289M5054MLITTLETON2:56:47
1086JerryStokely290M5559MLA MESA2:56:51
1194JosephTuman291M5559MOAKLAND2:56:53
652ChrisDelellis292M4044MINCLINE VILLAGE2:57:01
205BradleyAnderson293M3034MCALGARY2:57:11
719MathewRippa294M4549MPAHOA2:57:19
160MeggieOlson295F3034FNAALEHU2:57:28
484TimothyO'Hanlon296M3539MBYFIELD2:57:31
365MeganNicolet297F3539FANCHORAGE2:57:34
861MonicaScheel298F4549FKAILUA KONA2:57:36
1260MadeleineBudde299F6064FKAMUELA2:57:38
1252RichardPessah300M6064MOTTAWA2:57:40
119AmberPetroelje301F2529FKIHEI2:57:43
276RobbKulin302M3034MANCHORAGE2:57:44
257ElinorHarrington303F3034FCHUGIAK2:57:45
206JordanCrump304M3034MSEATTLE2:57:49
1030JamesBenkert305M5054MLIHUE2:57:52
1073WilliamBuck306M5559MPETALUMA2:57:54
467AmberMomblow307F3539FKAILUA2:57:59
1326GuillermoJaramillo308M6064MKAILUA KONA2:58:01
1365FrankThomas309M6569MSAN DIEGO2:58:01
800RandyLarson310M4549MTACOMA2:58:07
1181JenniferWingate311F5559FANCHORAGE2:58:13
820LisaHopkins312F4549FVICTORIA2:58:16
1054DianeGold313F5559FEL CAJON2:58:16
44AdaBenson314F119FKAMUELA2:58:18
1126DougTwillman315M5559MMILL VALLEY2:58:19
1158BruceMartyn316M5559M2:58:24
712MichaelLam317M4549MKAILUA KONA2:58:25
360ErinDixon318F3539FLOS ANGELES2:58:36
1024HildegardeMiyashiro319F5054FKAPAA2:58:40
343MatthewGivens320M3539MWAIKOLOA2:58:42
217FranciscoPizano321M3034MSAN DIEGO2:58:45
544Mary KaySorich322F4044FANCHORAGE2:58:52
376EricMoore323M3539MSAN FRANCISCO2:59:00
235RicardoAlmeida324M3034MSANTA CLARA2:59:02
840DavidHirst325M4549MLAKEWOOD2:59:07
106KaySind326F2529FANCHORAGE2:59:12
814MichelleEller327F4549FWASILLA2:59:14
704MichaelCooper328M4549MANCHORAGE2:59:16
869ToddKasteler329M4549MANCHORAGE2:59:16
1346RobMilne330M6064MVANCOUVER2:59:27
1175MaryKrysinski331F5559FEAGLE RIVER2:59:32
127JonathanCarlsmith332M2529MSANTA CLARA2:59:47
694JeannePeardon333F4549FKAILUA KONA2:59:47
1153AlHart334M5559MFAIRFAX2:59:49
952JosephZanotelli335M5054MSAN DIEGO3:00:01
864LesliVan Moon336F4549FOAKLAND3:00:09
1005WadeMelton337M5054MMOUNT VERNON3:00:10
584AnthonyHartz338M4044MKAILUA KONA3:00:12
838JimHanna339M4549MSEATTLE3:00:19
1253RobertPuaokalani340M6064MKAILUA KONA3:00:19
80PatrickYang341M2024MNEW YORK CITY3:00:30
933JanusReyes342F5054FANCHORAGE3:00:32
142KatKeivens343F2529FSAN DIEGO3:00:33
173CaseyDesmond344M3034MSEATTLE3:00:47
834RoyCompton345M4549MKAILUA KONA3:01:12
1389CullenGoodyear346F6569FKAILUA KONA3:01:17
831RachelleWoodcook347F4549FLAKE STEVENS3:01:23
645FerdinandBabas348M4044MHILO3:01:24
1265SheilaLeard349F6064FFOLSOM3:01:27
381MurrayWebb350M3539MESCONDIDO3:01:32
542KatieRice351F4044FKAILUA KONA3:01:35
516MarkDaviau352M4044MDENVER3:01:50
1344JamesHale353M6064MBELVEDERE3:01:55
658DavidHolder354M4044MRICHMOND3:01:58
215MatthewMarks355M3034MATLANTA3:01:59
1363JamesMcGowan356M6569MKAILUA KONA3:02:20
1285KurtKrueger357M6064MKEAUHOU3:02:22
71EmilyVan Hollebeke358F2024FBREMERTON3:02:26
1408BobCrawford359M7074MLAGUNA NIGUEL3:02:28
1104LindaSmith360F5559FANCHORAGE3:02:30
1364BobRanfranz361M6569MKAILUA KONA3:02:36
724AmyAsselbaye362F4549FHONOLULU3:02:44
123MeganSmith363F2529FWASHOUGAL3:02:45
693KellyMuragin364F4549FKAMUELA3:02:45
1094LindaJohns365F5559FPORTLAND3:02:45
219AlliAdams366F3034FKAILUA- KONA3:02:47
1111JackClevenger367M5559MWOODINVILLE3:02:48
612WhitneyReynolds368F4044FWHISTLER3:02:50
1013ToddWeinmann369M5054MKAILUA-KONA3:02:56
634AnneLamoreaux370F4044FMILL VALLEY3:02:59
417JoseSepulveda371M3539MSAN FRANCISCO3:03:03
749GavinGrimson372M4549MCALGARY3:03:07
1112MitchellCulver373M5559MPASO ROBLES3:03:07
651DavidCulver374M4044MWASHINGTON3:03:16
362KatherineGemmell375F3539FCHICAGO3:03:24
908MatthiasKusch376M5054MHILO3:03:28
97LaurenBaldwin377F2529FSAN MIGUEL3:03:31
223LynseyCapone-Smith378F3034FKIHEI3:03:34
236NazarethEscobedo379M3034MCENTENNIAL3:03:39
707ScottGiambastiani380M4549MSAN CARLOS3:03:42
1163KevinRhinehart381M5559MKAILUA-KONA3:03:45
1036MichaelDerr382M5054MSPRING VALLEY3:03:46
744ErikBasden383M4549MKAILUA-KONA3:03:49
1092TrishHart384F5559FFAIRFAX3:03:53
1011MarkStern385M5054MLOS ANGELES3:03:58
1296LoriMcCarney386F6064FHONOLULU3:04:04
797DavidHuber387M4549MPALO ALTO3:04:08
959DaphneDobko Walsh388F5054FVICTORIA3:04:09
251JessicaBills389F3034FKAILUA3:04:10
1241LauraRogers390F6064FKAILUA KONA3:04:10
1221VincentMikoloski391M5559MKAILUA-KONA3:04:12
929ElizabethMcAdams392F5054FBRUNSWICK3:04:12
451AaronWaldman393M3539MSOLANA BEACH3:04:20
420RonnieZuccaro394M3539MBAY HO3:04:28
48RyanCohen395M119MKAILUA KONA3:04:29
753EricMeacham396M4549MMOUNT JULIET3:04:30
790KristinSholton397F4549FANCHORAGE3:04:31
418TimothyShevlin398M3539MSALEM3:04:32
677MerrileighBoring399F4549FANCHORAGE3:04:34
721AlbertSpringall400M4549MLEANDER3:04:35
481FrankLemes401M3539MHAKALAU3:04:50
524BradParr402M4044MWEST HOLLYWOOD3:04:54
168NatalieToevs403F3034FKAILUA KONA3:04:54
110KiboKang404M2529MANCHORAGE3:04:59
874GlenMcCormick405M4549MANCHORAGE3:05:00
31LoeaAndrade406F119FKAILUA-KONA3:05:09
67KyraLanghelm407F2024FBELLINGHAM3:05:10
851MichelleJezycki408F4549FINCLINE VILLAGE3:05:15
1018MicheleFunk409F5054FCAMARILLO3:05:16
1267SuzannePaulsen410F6064FPAHOA3:05:18
817KimFong411F4549FWAPAHU3:05:21
61ErikaLarsen412F119FKAILUA-KONA3:05:32
504AmyKoehn413F4044FANCHORAGE3:05:35
733JulieMcCormick414F4549FANCHORAGE3:05:40
1304CharlesCholet415M6064MGRAND JUNCTION3:05:43
321AprilHill416F3539FSAN FRANCISCO3:05:43
1046ManxQuayle417M5054MFAIRBANKS3:05:46
404AndyHan418M3539MALEXANDRIA3:05:51
692WendyMoe419F4549FANCHORAGE3:05:51
1017CatherineFedak420F5054FPAHOA3:05:53
640DinaStrittmatter421F4044FKAMUELA3:05:55
604PatriciaKassis422F4044FKAMUELA3:05:55
630CatherineBreen423F4044FHILLSBOROUGH3:06:02
1375Robert (duncMitchell424M6569MKAMUELA3:06:03
599DominiqueCastillo425F4044FKAILUA-KONA3:06:07
437LarissaTreese426F3539FKIHEI3:06:09
432MeganOberg427F3539FKEAAU3:06:10
108KelseyTranel428F2529FANCHORAGE3:06:40
876TonyOlmstead429M4549MLYNNWOOD3:06:41
681MichelleDouble430F4549FKAILUA-KONA3:06:51
275KrisHinrichsen431M3034MANCHORAGE3:06:51
370JoeBell432M3539MANCHORAGE3:07:07
762JeffreyStrang433M4549MKAILUA-KONA3:07:16
487TommyShopay434M3539MKAILUA-KONA3:07:25
620BrianFlynn435M4044MANCHORAGE3:07:38
338JakeBraden436M3539MKAMUELA3:07:47
253JenniferBuck437F3034FKIHEI3:07:50
151EverSanchez Arellano438M2529MSCOTTSDALE3:07:51
946WilliamHowell439M5054MHILO3:07:53
755ChristopherMortimer440M4549MKULA3:08:02
147AngelaTraverso441F2529FSAN JOSE3:08:02
705BenDe Waal442M4549MSAN JOSE3:08:09
1230TeriAbrahamzon443F6064FVACAVILLE3:08:12
667TomStafford444M4044MHIGHLANDS RANCH3:08:15
1023LauraMitchell445F5054FCOLORADO SPRING3:08:16
708OliverGutierrez446M4549MBELMONT3:08:18
130EvanJones447M2529MARLINGTON3:08:22
1134TinaCatlin448F5559FNORTH TUSTIN3:08:24
1305BoFlorendo449M6064MKEALAKEKUA3:08:28
798ScottJones450M4549MANCHORAGE3:08:30
912JohnMothershead451M5054MLA CANADA3:08:34
232KelsieWehren452F3034FKAILUA-KONA3:08:39
1060WendyOsen453F5559FCORVALLIS3:08:42
841AdrianLethbridge454M4549MTIGARD3:08:57
1235DonnaJones455F6064FWHITEHORSE3:08:57
894KathyNix456F5054FSUNNYVALE3:09:00
1042GaryGutowski457M5054MWAUSAU3:09:11
244AlexanderRawling458M3034MSEATTLE3:09:13
962TinaMcMaster-Goering459F5054FEAGLE RIVER3:09:13
1196BruceWhitson460M5559MPALO ALTO3:09:16
1266MarieManning461F6064FKAILUA3:09:24
1338LindaHallinger462F6064FKAILUA KONA3:09:26
466RachelMason463F3539FHILO3:09:28
1310JohnMiller464M6064MKAILUA KONA3:09:30
804MichaelSmith465M4549MKAILUA-KONA3:09:33
36ThomasParker466M119MHOMELAND3:09:48
128DrewGottula467M2529MDENVER3:09:51
747RyanDee468M4549MCARLSBAD3:09:52
421JordanBarthold469F3539FVOLCANO3:09:56
324KellyHudik470F3539FKAILUA KONA3:09:58
1316LaurelWright471F6064FPUEBLO3:10:06
819MargaretHaderle472F4549FKAILUA-KONA3:10:13
339SethBrink473M3539MKIHEI3:10:18
902JohnBrandt474M5054MTUCSON3:10:25
384JennyBulgrin475F3539FOAKLAND3:10:29
601CharlotteEdmondson476F4044FANCHORAGE3:10:32
407ColbyLa Brie477M3539MHILO3:10:40
921ChristineDellacato478F5054FEL CAJON3:10:43
686LauraJohnston479F4549FANCHORAGE3:10:49
1331RickRubio480M6064MKAILUA KONA3:10:51
489RobertSylvester481M3539MJERSEY CITY3:10:54
1058CarolLangevin482F5559FKAMUELA3:10:55
249KathrynBattiston483F3034FTORONTO3:10:56
1420MacAmos484M7074MKAMUELA3:10:57
714GlennLecheminant485M4549MSAN FRANCISCO3:11:04
839KentHawryluk486M4549MCARMEL3:11:17
796JustinHarkins487M4549MKIHEI3:11:30
722JonathanVedelli488M4549MKAMUELA3:11:31
720TracyRussett489M4549MFALHER3:11:35
520MichaelMasuda490M4044MKAILUA-KONA3:11:40
93JulieStorlie491F2529FANCHORAGE3:11:47
1034JohnCole492M5054MANCHORAGE3:11:49
678TiaBrainard493F4549FKIHEI3:11:50
1089SusieMondry494F5559FDALLAS3:12:08
803RubenRuiz495M4549MKAILUA-KONA3:12:16
691KeriMehling496F4549FKIHEI3:12:22
509SheleneSainsbury497F4044FEAGLE RIVER3:12:31
134ZachWalden498M2529MLYONS3:12:35
409RobertLindeman499M3539MWAIKOLOA3:12:43
1080ElishaPowell500M5559MANCHORAGE3:12:53
285KendalBrown501F3034FLA JOLLA3:12:57
375KeithMichael502M3539MATLANTA3:13:03
225NicoleMailhot503F3034FKAILUA KONA3:13:03
1120JeremyLeonard504M5559MKAILUA-KONA3:13:04
1343BrettEvart505M6064MSAN FRANCISCO3:13:05
122LaurenRusert506F2529FHILO3:13:05
1272Mary AnnRenkert507F6064FANCHORAGE3:13:08
491MarcWildfang508M3539MPORTLAND3:13:18
1191DonPettit509M5559MWOODINVILLE3:13:20
1385RandallFarleigh510M6569MANCHORAGE3:13:21
533SarahArnott511F4044FSAN FRANCISCO3:13:21
1050PamBissing512F5559FCLIVE3:13:38
1165DennisVallefuoco513M5559MKAPOLEI3:13:43
143RoblynKingsmill Stuart514F2529FNEW YORK3:13:45
140LauraDelahunt-Devlin515F2529FNEW YORK3:13:45
1149DavidAyers516M5559MCORBETT3:13:57
83KelseyMontgomery517F2529FGAITHERSBURG3:13:58
642ShellieWinter518F4044FANDALE3:13:59
312ChrisMiller519M3034MDANVILLE3:14:05
412TroyMcCloud520M3539MHONOLULU3:14:06
116RebeccaLegault521F2529FRR 1 LUNENBURG3:14:07
33MorganDavis522F119FKAPAAU3:14:08
638JenniferRichardson523F4044FKAMUELA3:14:25
212NeilIrwin524M3034MKAHULUI3:14:38
227RevaeSchneider525F3034FCHICAGO3:14:41
679FreciaCevallos526F4549FHILO3:14:46
932AgnesPrehn527F5054FKAILUA KONA3:14:46
1246BillGreentree528M6064MKAILUA KONA3:14:53
1328JamesNielsen529M6064MBRIGHTON3:15:02
242FlorentinoPacheco530M3034MPERRIS3:15:03
96BrandonTejera531M2529MHIGHLANDS RANCH3:15:09
12TylerCooper532M2024MSAN JOSE3:15:13
519KyleKeamo533M4044MHILO3:15:14
1394PeterBresciani534M6569MCAPTAIN COOK3:15:23
396AmyScharpf535F3539FANCHORAGE3:15:24
1313StanWatt536M6064MSAN JOSE3:15:26
1391HarrietPaule537F6569FANCHORAGE3:15:26
34MaileFediuk538F119FKAILUA-KONA3:15:32
397KristinTaylor539F3539FANCHORAGE3:15:36
856KarenMcCreary540F4549FANCHORAGE3:15:36
930MollyMcCormick541F5054FDOUGLAS3:15:37
279ChristopherNorton542M3034MALAMEDA3:15:39
131AaronKleefield543M2529MNEWTON3:15:41
635AmityMason544F4044FKIHEI3:15:44
204JennyYost545F3034FSUNNYVALE3:15:46
1232KimCampbell546F6064FCOURTENAY3:15:59
502MarcieHoeke547F4044FMILILANI3:16:07
81Ava ShrutiGreenwood548F2529FKAILUA KONA3:16:10
1026JudithPowell549F5054FANCHORAGE3:16:15
726PamelaBoyleston550F4549FANCHORAGE3:16:16
999RoyDollwet551M5054MHILO3:16:18
1008MichaelRagosin552M5054MVANCOUVER3:16:21
358JakeWhitney553M3539MBORING3:16:22
738DianePayne554F4549FATLANTA3:16:22
413NichMillage555M3539MCASTLE ROCK3:16:28
774KimberlyBush556F4549FANCHORAGE3:16:53
977MarkMakler557M5054MPORTLAND3:16:54
263AudreyPaule558F3034FSEATTLE3:16:55
501CortnieHoefel559F4044FSALEM3:16:57
1358Micheal (mikHamilton560M6569MKEAUHOU3:17:07
1029MichaelAndrade561M5054MKAILUA-KONA3:17:09
1321DonaldEdwards562M6064MJACKSONVILLE3:17:10
1087MonaBremont563F5559FANCHORAGE3:17:11
889SuzanneJack564F5054FMILL VALLEY3:17:12
683WendyForsythe565F4549FIRVINE3:17:13
1317MarkAbril566M6064MHILO3:17:14
1499AlfredLonser567M4549MANCHORAGE3:17:21
1374SteveHodges568M6569MKAILUA KONA3:17:27
157MeganFreas569F3034FGREENWOOD VILLA3:17:28
167JenniferSosa570F3034FMILILANI3:17:39
823LeanneLowden571F4549FLA CANADA3:17:39
1268AnnePerry572F6064FHONOLULU3:17:39
1361HowardLiebowitz573M6569MVENICE3:17:42
1302CeciliaWeber574F6064FKAILUA KONA3:17:44
846MelChapman575F4549FANCHORAGE3:17:47
1347GregorySharp576M6064MGREENSBORO3:17:52
158DebikaHoward577F3034FISSAQUAH3:17:54
79KyleFlick578M2024MWASHINGTON3:17:55
730HollyKrenz579F4549FANCHORAGE3:17:56
488JasonSmith580M3539MSAN DIEGO3:17:57
114SaraGalbraith581F2529FSAN DIEGO3:17:58
727JoeyCaterinichio582F4549FANCHORAGE3:18:05
1308StevenHardie583M6064MLAS VEGAS3:18:11
512LarryAguayo584M4044MHUNTINGTON BEAC3:18:17
278JimNauman585M3034MANCHORAGE3:18:20
40HannahMosher586F119FMORRISON3:18:23
1001NormGoody587M5054MKAILUA KONA3:18:26
1384PaulBurke588M6569MKAILUA-KONA3:18:52
450SharadVenkat589M3539MOAKLAND3:19:02
38YerdenSuraganov590M119MKAMUELA3:19:03
1121JoachimLimburg591M5559MCAMPBELL3:19:06
50StevenGuppy592M119MKAMUELA3:19:07
710ChadHutchins593M4549MSAN DIEGO3:19:09
1150LarryDerbes594M5559MKAMUELA3:19:13
536GeorginaGibson595F4044FFAIRBANKS3:19:19
112MargotFerguson596F2529FANCHORAGE3:19:21
383KelleyBrennan597F3539FSAN FRANCISCO3:19:24
295KateMerriam598F3034FANCHORAGE3:19:30
195JessieMerriam599F3034FANCHORAGE3:19:30
592JeremyThiessen600M4044MEDMONTON3:19:34
622JasonLukasek601M4044MSALT LAKE CITY3:19:39
196MeganNelson602F3034FSEATTLE3:19:42
791PaigeWilburn603F4549FHONOKAA3:20:05
386SuzanneConlon604F3539FKIHEI3:20:06
539JulieKane605F4044FANCHORAGE3:20:06
482BenMomblow606M3539MKAILUA3:20:09
415BruceRogers607M3539MYAKIMA3:20:16
231KaraToussaint608F3034FSANTA MONICA3:20:16
332RebeccaRichey609F3539FARVADA3:20:20
1298LindaPollack610F6064FKAILUA KONA3:20:21
1027LisaWilliams611F5054FLAINGSBURG3:20:41
702Pei TungWu612F4549FHONOLULU3:20:43
395BridgetPaule613F3539FANCHORAGE3:20:44
822RuthKroona614F4549FANCHORAGE3:20:47
148MarieWalden615F2529FLYONS3:20:54
867MarkDoll616M4549MHONOLULU3:20:59
1413WendyMinor617F7074FKAMUELA3:21:01
73AshleyAnderson618F2024FLONG ISLAND CIT3:21:09
351KeolalaniOka619M3539MKAILUA-KONA3:21:13
653MichaelDrutar620M4044MKAILUA-KONA3:21:14
1395BruceDavison621M6569MANCHORAGE3:21:15
643SaraYoung622F4044FMOUNT VERNON3:21:17
283RyanWoolbright623M3034MLAHAINA3:21:19
1228JefferyTuetken624M5559MSAN DIEGO3:21:20
1366RickVollstedt625M6569MKAILUA-KONA3:21:30
922JulieDenton626F5054FDAVIS3:21:33
1052JackieCason627F5559FANCHORAGE3:21:34
1379JulieCorman628F6569FSNOHOMISH3:21:36
268HollyWesterfield629F3034FSEATTLE3:21:40
296CamilleMeyer-Arendt630F3034FSEATTLE3:21:40
260AmyKlein631F3034FSAN DIEGO3:21:45
1353LisabethLayne632F6569FLIHUE3:21:53
340MichaelCosta633M3539MHONOLULU3:21:55
189SallyGraglia634F3034FSAN FRANCISCO3:21:55
1180DorothyWaterhouse635F5559FARVADA3:21:58
773LisaBurgis Der636F4549FCALGARY3:21:58
289KateHirrel637F3034FPALOS VERDES ES3:22:05
1279NormanBull638M6064MCOLWOOD3:22:08
1159DavidMattice639M5559MVOLCANO3:22:18
68NicoleLoher640F2024FNY3:22:18
842KarlPasch641M4549MANCHORAGE3:22:19
836MarkGraham642M4549MANCHORAGE3:22:32
371JimBrett643M3539MTUSCON3:22:37
245ShaneSobotka644M3034MLAKE STEVENS3:22:45
1003MarkHerkert645M5054MSEATTLE3:22:51
318KarrenGilliland646F3539FPORTLAND3:22:51
531RobertWickizer647M4044MHONOLULU3:22:54
1115FredHines648M5559MEVERETT3:22:55
233StacieWeninger649F3034FANDALE3:23:08
1242MargieScherk650F6064FVANCOUVER3:23:14
152BryceSilva651M2529MKAILUA-KONA3:23:20
1012LorenzoVasquez652M5054MMEDFORD3:23:24
1398PaulWhitehouse653M6569MKAILUA KONA3:23:33
1306JohnGregory654M6064MWAIKOLOA BEACH3:23:37
426HeatherCaldwell655F3539FANCHORAGE3:23:37
518JosephHo656M4044MSAN JOSE3:23:38
920JanaCole657F5054FANCHORAGE3:23:47
1200JanetteEnloe658F5559FCENTRAL POINT3:23:49
302MeganStrom659F3034FPETALUMA3:23:52
198BetsyRezner660F3034FSAN DIEGO3:23:58
1014DavidWilliams661M5054MPORTLAND3:24:00
566JulaineKeamo662F4044FHILO3:24:05
1290DanRussell663M6064MWINDSOR3:24:17
1318RandallCislo664M6064MKAMUELA3:24:39
669JaimeUbongen665M4044MHONOLULU3:24:46
438MichaelCole666M3539MSAN FRANCISCO3:24:47
1330BrianPost667M6064MEAST LANSING3:24:47
144ErikaPrieksat668F2529FANCHORAGE3:24:51
1141TamiMacAller669F5559FWAIKOLOA3:25:02
884KimCochran670F5054FANCH3:25:04
1229DarcyWalters671M5559MCONNOR3:25:15
32SilasWiley672M119MKAILUA KONA3:25:29
297MichelleMurphy673F3034FMILILANI3:25:30
713AndrewLane674M4549MKONA3:25:31
958JeanetteDavey675F5054FSAN DIEGO3:25:34
290JackieHo676F3034FSAN JOSE3:25:41
124MarinaSpevak677F2529FMONTREAL3:25:46
133JordanGraboyes678M2529MKAILUA- KONA3:25:48
1109SteveAdams679M5559MWAIKOLOA3:25:51
575JodiVedelli680F4044FZEBULON3:25:51
1311DaveOeser681M6064MESCONDIDO3:25:52
1207CherylMyers682F5559FANCHORAGE3:25:54
1224BruceNelson683M5559MEAGLE RIVER3:26:04
380ChristopherSchnell684M3539MANCHORAGE3:26:05
78ChristianCrosby685M2024MWAHIAWA3:26:11
673SuzanneArmentrout686F4549FCHUGIAK3:26:41
265CarrieSondheim687F3034FDENVER3:26:48
1325DaveHodges688M6064MKAILUA-KONA3:26:54
1199SharleeCotter689F5559FHAWAII NATIONAL3:26:56
1075CraigCurrier690M5559MANCHORAGE3:27:00
171JoshuaChaudoin691M3034MHONOKAA3:27:05
660ShawnKane692M4044MANCHORAGE3:27:11
429RachelGrenier693F3539FWAIKOLOA3:27:20
1417HalBaas694M7074MWAIKOLOA3:27:23
1219WayneMarthaller695M5559MMEDFORD3:27:25
1300JennieSpenser696F6064FPUKALANI3:27:37
698NicoleVedelli697F4549FKAMUELA3:27:51
1025MaryPosey698F5054FMOUNTAIN VIEW3:28:02
717RyanProctor699M4549MELK GOVE3:28:09
74TylerArnold700F2024FANCHORAGE3:28:14
1262CynthiaHendel701F6064FEAGLE RIVER3:28:15
1176PamMiller702F5559FKAILUA KONA3:28:17
587ArnaudMartin703M4044MNEW YORK3:28:17
184ChloeCaldwell704F3034FSANDY3:28:23
475JamesBuehler705M3539MKAILUA KONA3:28:25
943MikeDonnelly706M5054MKAMUELA3:28:28
494SherrieAustin707F4044FKIHEI3:28:28
224StephanieEppig708F3034FREDONDO BEACH3:28:31
569JoleneHead709F4044FKAILUA KONA3:28:31
346BrentHanson710M3539MKAILUA KONA3:28:35
1393JimBeatty711M6569MKILAUEA HI3:28:46
113KellyFrost712F2529FANCHORAGE3:28:52
991PamelaRepp713F5054FLUDINGTON3:29:03
923KathrynFinn714F5054FTORONTO3:29:10
1145JeannineOndrejko715F5559FTHOUSAND OAKS3:29:15
458JennyGirardi716F3539FSAN FRANCISCO3:29:30
402DiegoAngarita717M3539MKAILUA-KONA3:29:31
1171SheareenGedayloo718F5559FHILO3:29:38
454NariBenson719F3539FSEATTLE3:29:46
220AdrianaAmeri720F3034FLOS ALTOS HILLS3:29:48
1297LeeOtani721F6064FHILO3:29:54
925FlorenceJuge-Boulogne722F5054FMOUNTAIN VIEW3:30:08
1152GaryGriffiths723M5559MEDMONDS3:30:09
498HayleyFord724F4044FVOLCANO3:30:16
477FrancesHechanova725M3539MKAILAU-KONA3:30:17
1138LindaGreentree726F5559FKAILUA-KONA3:30:22
503MichelleKim727F4044FCARMEL3:30:40
574AliciaSmith728F4044FENGLEWOOD3:31:10
1070DarrylBarbadillo729M5559MWAHIAWA3:31:15
1263DebraKinn730F6064FANCHORAGE3:31:18
688KimberlyLau731F4549FBELMONT3:31:20
77BradBates732M2024MRENO3:31:20
269CariWhitten733F3034FANCHORAGE3:31:21
154ErikaBury734F3034FTUALATIN3:31:22
361AnnaFischer735F3539FANCHORAGE3:31:25
203KelseyWhitten736F3034FANCHORAGE3:31:27
591KeithSy737M4044MSAN DIEGO3:31:30
971ChrisGrange738M5054MBUCKEYE3:31:30
687DebraKim739F4549FHILO3:31:35
394LaurenO'Hanlon740F3539FBYFIELD3:31:40
1564KimGraboyes741F5559FBEAVERTON3:31:48
1074GerardCallo742M5559MHILO3:31:50
843KerstinBaun743F4549FLAKE OSWEGO3:31:51
854KrisKile744F4549FPALMER3:31:58
1210MelissaRoberts745F5559FANCHORAGE3:32:04
1388JessePerry746M6569MPARK CITY3:32:16
1140LaurieLocke747F5559FSPRUCE GROVE3:32:19
1319BillCulhane748M6064MKAILUA KONA3:32:44
129YoniHazan749M2529MCHATEAUGUAY3:32:48
1155KazuhideIwasaki750M5559MKANTO3:32:51
586StevenJoiner751M4044MPORTLAND3:32:56
610Ruth AllisonLonser752F4044FANCHORAGE3:33:00
354ShashankSaggar753M3539MSAN JOSE3:33:20
825LisaMezger754F4549FWAIKOLOA3:33:24
772MisheleBroad755F4549FTRUCKEE3:33:25
598ToriAuth756F4044FHIGHLANDS RANCH3:33:33
1418GeraldGruber757M7074MKAILUA-KONA3:33:37
1421GrantGower758M7074MNEWBURY PARK3:33:44
326ElisaLukasik759F3539FKAILUA3:33:51
153TishaAnderson760F3034FLOS ANGELES3:33:54
98HilaDavid761F2529FLOS ANGELES3:33:55
385KimberlyComacho762F3539FEL SEGUNDO3:33:56
739EstherRoberts763F4549FHONOLULU3:34:01
1378BethBaker764F6569FEAGLE RIVER3:34:10
994LauraWilliams765F5054FFOLSOM3:34:13
1223VispiMistry766M5559MANCHORAGE3:34:13
1407RuthLockett767F7074FKANEOHE3:34:17
1342RandallCavanaugh768M6064MKAILUA KONA3:34:19
455JannelleCruz769F3539FSEATTLE3:34:19
603KerriHennessy770F4044FDENVER3:34:19
897SheilaSwanson771F5054FANCHORAGE3:34:23
1209TeresaOswald772F5559FKAILUA KONA3:34:40
252DanielleBlanchard773F3034FANCHORAGE3:34:46
967JefferyDempsey774M5054MHOLLISTER3:35:03
780KristinJensen775F4549FSAN DIEGO3:35:06
1188KevinJones776M5559MSEATTLE3:35:12
703WillBroad777M4549MTRUCKEE3:35:20
741MarikoUmeda778F4549FSHIOHAMA, KOTO-3:35:24
146HayleySueoka779F2529FSAN FRANCISC3:35:25
685AnneHerreria780F4549FSAN JOSE3:35:42
59JuanMichersosales781M119MKAMUELA3:35:43
871GregKlaben782M4549MSCOTTS VALLEY3:35:52
1078BrianMustacci783M5559MWASILLA3:35:53
1257JoeSimmons784M6064MHAIKU3:36:14
120KathleenReaume785F2529FGROSSE POINTE F3:36:26
1016DeborahBuck786F5054FPETALUMA3:36:36
473JamesAtherton787M3539MSAN JOSE3:36:37
91ChantalLedue788F2529FANCHORAGE3:36:37
621DonGurskis789M4044MBELMONT3:36:43
1136KatherineCross790F5559FKAMUELA3:36:45
30KeanuYoung791M119MKAMUELA3:36:55
934RachelSheehan792F5054FHILO3:36:55
1061KathleenPelkan793F5559FBETHEL3:36:55
41DanielGroves794M119MKAPAAU3:37:06
737KateNawahine795F4549FHILO3:37:12
631JyllGreen796F4044FANCHORAGE3:37:29
1415JamesReeves797M7074MANCHORAGE3:37:35
266SophieThall798F3034FNEW YORK3:37:35
888DanaHirst799F5054FNORTH VANCOUVER3:37:39
1139BarbKleinkort800F5559FCOLORADO SPRING3:37:42
1261RebeccaDewhirst801F6064FKAILUA KONA3:37:45
675GiovannaBoccardo802F4549FHOUSTON3:37:46
1369AnneRoth803F6569FCOLORADO SPRING3:37:46
423EmilyBledsoe804F3539FDENVER3:37:52
848AndreaGoodmansen805F4549FBRIER3:38:01
499SusieFrei806F4044FFAIRBANKS3:38:03
746DavidCasas807M4549MHONOLULU3:38:05
304ClairissaWarnock808F3034FOREGON COTY3:38:17
1021KathyKartchner809F5054FAUKE BAY3:38:24
1274BarbTupper810F6064FOKANAGAN FALLS3:38:25
1322DavidFitzgibbons811M6064MCARLSBAD3:38:51
1088DianeBrozovsky812F5559FANCHORAGE3:38:51
355GabrielSanchez813M3539MBELLFLOWER3:39:08
166JenniferMorrison814F2529FNORTH HOLLYWOOD3:39:15
695SheilaPowers815F4549FBELLEVUE3:39:16
852MariKai816F4549FPORTLAND3:39:18
1201MarianFrost817F5559FFLAGSTAFF3:39:22
104LisaKoeneman818F2529FANCHORAGE3:39:25
137AileenAuyeung819F2529FUNION CITY3:39:35
1093KarenHelmeyer820F5559FKAILUA3:39:37
1079RobertPeterson821M5559MWAIPAHU3:39:50
557AlejandroMartinez822M4044MLOS ANGELES3:40:02
916AndrewYoung823M5054MEAGLE RIVER3:40:04
743DonaldAlfiche824M4549MHAKALAU3:40:10
987StaceyKayden825F5054FSAN FRANCISCO3:40:19
63TianaTaylor826F2024FANCHORAGE3:40:20
159KristiKnoblich827F3034FSAN LENDRO3:40:26
310BlakeHess828M3034MLAKE FOREST PAR3:40:42
528EricTan829M4044MSAN MATEO3:40:48
1091TinaHallmark830F5559FNEWBURY PARK3:40:58
1425JamesWright831M75PLMPUEBLO WEST3:41:01
917BethBisignano832F5054FSEATTLE3:41:10
1251AnthonyOliver833M6064MSOLDOTNA3:41:17
1129DrewWettlaufer834M5559MBIRMINGHAM3:41:34
1386MichialMaguire835M6569MMCCALL3:41:46
924LoreleiHass836F5054FEAGLE RIVER3:41:46
1166EdwardWalsh837M5559MVICTORIA3:41:53
1048TimTaylor838M5054MWAIKOLOA3:41:56
1084MitchSipiala839M5559MKAILUA KONA3:42:00
201ColetteVance-Wright840F3034FSAN FRANCISCO3:42:17
357KristopherWhiting841M3539MKAILUA-KONA3:43:04
1065SusanSzymanski842F5559FLITTLETON3:43:13
558JamesPavlik843M4044MARVADA3:43:19
66MichaliaGorden844F2024FSANTEE3:43:20
1169RobinCope845F5559FANCHORAGE3:43:29
382TraceyAnderson846F3539FANCHORAGE3:43:41
568ErinHolmes847F4044FTIGARD3:43:47
699AndreaWalker848F4549FLOVELAND3:43:51
1352EllenJackson849F6569FKEAUHOU3:43:59
76KatharinaYoungblood850F2024FANCHORAGE3:44:08
211MatthewHermeyer851M3034MSANTEE3:44:15
1039DesFan852M5054MTORONTO3:44:20
1275BeckyWatts853F6064FIOWA CITY3:44:25
262MeganPatten854F3034FHAKALAU3:44:29
161KatieQuick855F3034FCASTRO VALLEY3:44:32
1157DaveMandelkern856M5559MBURLINGAME3:44:35
145ElizabethSilva857F2529FKAILUA KONA3:44:44
879NobuhideWatanabe858M4549MTOKYO3:44:56
1269AnnePettit859F6064FWOODINVILLE3:44:58
331StinaNielsen860F3539FSAN DIEGO3:45:07
778KimGriffiths861F4549FEDMONDS3:45:17
460CindyLaterra862F3539FLA MESA3:45:20
1383IsaacAkashi863M6569MKEAAU3:45:22
1020MarianHuish864F5054FINCLINE VILLAGE3:45:24
811ValarieCoscia865F4549FANCHORAGE3:45:38
510MarianneSy866F4044FSAN DIEGO3:45:40
1312JimWard867M6064MNEWPORT BEACH3:45:42
126TiffaniWorthley868F2529FDENVER3:45:58
1239NancyMeyer869F6064FPORTLAND3:46:01
393MichelleMarshall870F3539FKAILUA KONA3:46:20
982EricYamanoha871M5054MPEARL CITY3:46:27
1301BarbaraWallace872F6064FMILL VALLEY3:46:37
75MinnKim873F2024FNEW YORK3:46:42
1144DebbieNishiyama874F5559FHONOLULU3:46:50
156SamanthaEdwards875F3034FSAN JOSE3:46:58
441ShaneHook876M3539MSAN DIEGO3:47:13
1059FrancesMiyamoto877F5559FVENICE3:47:20
789AngelaRiley878F4549FMILWAUKIE3:47:24
792LynneYoung879F4549FEAGLE RIVER3:47:26
363LauraHalverson880F3539FANCHORAGE3:47:28
913RayReyes881M5054MCHULA VISTA3:47:29
956SherryBlume882F5054FSAN DIEGO3:47:32
186StephanieDevenny883F3034FANCHORAGE3:47:47
1068DeborahVogl884F5559FDENVER3:47:50
1354BevLewanski885F6569FEAGLE RIVER3:48:00
809RachelleAlger886F4549FANCHORAGE3:48:15
443Gary AJanes887M3539MANCHORAGE3:48:23
164ChristinaReyes888F3034FHONOLULU3:48:31
581ScottForbes889M4044MBELLEVUE3:48:32
629CarrieBjorn-Roli890F4044FANCHORAGE3:48:32
1067JaniceVasquez891F5559FMEDFORD3:48:34
680GiaCurrier892F4549FANCHORAGE3:48:37
1424DickSmith893M75PLMHANALEI3:48:45
818DianeFoster894F4549FANCHORAGE3:48:58
238BrandonHinaga895M3034MHONOLULU3:49:04
141VenessaGriffith896F2529FCAMARILLO3:49:32
121ElizabethRothenberg897F2529FSAN FRANCISCO3:49:39
1373AlfredDenbleyker898M6569MKAMUELA3:49:56
367DanaReese899F3539FANCHORAGE3:50:00
117TiffanyMims900F2529FKAILUA-KONA3:50:18
964KristaNeville901F5054FSANTEE3:50:21
927SaraLewis902F5054FMENLO PARK3:50:27
957Mei SimChan903F5054FKALAHEO3:50:49
1337LorraineGreen904F6064FLAFAYETTE3:50:49
1167ElizabethArmas905F5559FLA MESA3:50:51
769MariaAristizabal906F4549FBROOKLYN3:51:20
447JustinOrr907M3539MANCHORAGE3:51:25
1381JoyceDuker908F6569FSEATTLE3:51:43
1147MaryWiegand909F5559FCLYDE HILL3:51:44
401MichaelAdams910M3539MDENVER3:51:53
135KrystleAlcain911F2529FPUUNENE3:51:59
193AmandaKeating912F3034FSAN DIEGO3:52:04
1010PaulSorensen913M5054MROLLING MEADOWS3:52:05
480BryanKhorge914M3539MLOS ANGELES3:52:06
931ShaunaMcKimmie915F5054FSAN MATEO3:52:14
860HelenaRice916F4549FOLYMPIA3:52:16
632ChiharuHowell917F4044FHILO3:53:16
548JasonAyre918M4044MSAN DIEGO3:53:20
700SerenaFong919F4549FSAN FRANCISCO3:53:24
463RanaLotfi920F3539FESCONDIDO3:53:29
187LizDinsmoor921F3034FLA JOLLA3:53:34
364CrystalMiner922F3539FANCHORAGE3:53:48
132AkshaySingh923M2529MSAN FRANCISCO3:53:50
85MaxFoster924M2529MSNOHOMISH3:54:17
786TinaParker925F4549FHOMELAND3:54:36
567TiaHockenberry926F4044FEWA BEACH3:54:44
138AshleyBallester927F2529FSAN DIEGO3:54:50
995KennethBaker928M5054MMENLO PARK3:54:51
287ShaunaFlores929F3034FKAILUA-KONA3:54:53
779VickiHanna930F4549FSEATTLE3:54:56
179MalharMehta931M3034MMOUNTAIN VIEW3:54:58
1203MarieHickey932F5559FKAILUA-KONA3:55:17
180TimPlummer933M3034MTRUCKEE3:55:24
422DesireeBates934F3539FESCONDIDO3:55:25
882ChristalChacon935F5054FVALLEY VILLAGE3:55:27
56NanaUeno936F119FKAILUA KONA3:55:46
890DesiKlaar937F5054FLAKESIDE3:56:19
200ErickaSylvester938F3034FJERSEY CITY3:56:33
826SallyMosher939F4549FMORRISON3:56:35
102KatherineHansen940F2529FKAILUA-KONA3:56:44
1293DianeFirmani941F6064FWASILLA3:56:47
330HannahNielsen942F3539FPORTLAND3:57:08
887MonicaGyulai943F5054FBERKELEY3:57:17
1211MelissaStokely944F5559FLA MESA3:57:28
883PattyChaplin945F5054FLITTLETON3:57:39
1255BobRubenstein946M6064MSAN JOSE3:57:44
538YvonneHenrickson947F4044FANCHORAGE3:57:49
299KathrynReilly948F3034FCHICAGO3:57:52
329LeslieNeed949F3539FANCHORAGE3:57:59
1028SachikoYoshikawa950F5054FSHIBUYA KU3:58:05
300MarthaRosenstein951F3034FANCHORAGE3:58:15
600MichelleCzech952F4044FSAN JOSE3:58:18
39AssetYessenzhan953M119MKAMUELA3:58:22
980NoboruUmeda954M5054MKOTO-KU3:58:23
1132SidneyBillingslea955F5559FANCHORAGE3:58:26
947DouglasSides956M5054MKAILUA KONA3:58:31
1335MelanieCunningham957F6064FSOOKE3:58:33
301RachelScherr958F3034FSAN FRANCISCO3:58:34
862CeceliaSpecht959F4549FLOS ANGELES3:58:46
1333SallyBerryman960F6064FPUEBLO WEST3:59:11
1500LaurieBruns961F5559FALAMO3:59:16
816ValerieFlynn962F4549FANCHORAGE3:59:53
1148SteveAllen963M5559MBLAINE4:00:08
770CarolynArnaiz964F4549FLIVERMORE4:00:21
165AshleySmith965F3034FANCHORAGE4:00:25
1380SusanCrossland966F6569FBREMERTON4:00:37
1341RobertByrne967M6064MSOLEBURY4:00:44
919BettinaChastain968F5054FANCHORAGE4:00:44
427MaureenGiorio969F3539FWAHIAWA4:00:51
1057LizKelly970F5559FMILILANI4:01:09
985LindaFletcher971F5054FPALO ALTO4:01:13
1168ElisaAumont972F5559FCEDAR GLEN4:01:14
1022KateMajuri973F5054FWILSONVILLE4:01:15
627JamesSparks974M4044MWAIKOLOA4:01:23
870ZacharyKile975M4549MPALMER4:01:47
875ToddMosher976M4549MMORRISON4:01:59
1270LynnReedy977F6064FPLEASANTON4:02:34
388RebekahDykhorst978F3539FPORTLAND4:02:47
328JessiMorris979F3539FANCHORAGE4:02:55
633SabrinaJetton980F4044FPORTLAND4:02:55
602AllisonFields981F4044FSAN CARLOS4:02:57
392SabraMarchand982F3539FANCHORAGE4:03:12
1225StevenNielsen983M5559MBEAVERTON4:03:32
682GingerEarley984F4549FSAN DIEGO4:04:10
99AliDicello985F2529FLOS ALTOS4:04:18
966JeffreyArenberg986M5054MCUPERTINO4:04:34
614LizetteZepeda987F4044FSIGNAL HILL4:04:38
448JdScheffee988M3539MSAN JOSE4:04:53
1069MelanieWhittall989F5559FDELTA4:05:27
858LouisaPardo990F4549FRENTON4:05:34
496GenniferCartwright991F4044FSAN DIEGO4:05:36
573RaychelRomero992F4044FSAN DIEGO4:05:37
1119OwenLee993M5559MHONOLULU4:05:41
1281SteveCramer994M6064MREDWOOD CITY4:05:54
572HollyPerttula995F4044FCARLSBAD4:06:03
847DonnaGocobachi996F4549FNOVATO4:06:31
1351LindaGarret997F6569FSEATTLE4:06:54
892LyndaLimon998F5054FANCHORAGE4:07:04
1101SammyePokryfki999F5559FWASILLA4:07:19
939EzraChaouli1000M5054MLOS ANGELES4:07:24
1127DarrenUpchurch1001M5559MEWA BEACH4:07:36
485FrankSamour1002M3539MLITTLETON4:07:55
808JeannetteAlbrecht1003F4549FSAN BRUNO4:08:07
246GregoryTelles1004M3034MKAILUA-KONA4:08:20
305SarahZaid1005F3034FNEW YORK4:08:22
1197MattWiegand1006M5559MCLYDE HILL4:08:43
1227MarkRowley1007M5559MANCHORAGE4:09:06
594LukeWong1008M4044MKAILUA KONA4:10:55
228RachylSchulte1009F3034FHIGHLANDS RANCH4:11:05
1416SusanLalanne1010F7074FKAILUA-KONA4:11:22
490JerrodTaylor1011M3539MHIGHLANDS RANCH4:11:27
784JenniferLucas1012F4549FKIRKLAND4:11:37
900SusieTroxler1013F5054FWESTLAKE VILLAG4:11:37
191KayseHinrichsen1014F3034FANCHORAGE4:12:09
1382LornaSmart1015F6569FTRUCKEE4:12:17
1423John JBarnett1016M75PLMKEALAKEKUA4:12:21
202LauraVilchez1017F3034FSOUTH PASADENA4:12:34
878ScottParker1018M4549MHOMELAND4:12:37
550AlessandroCapistrano1019M4044MBELLEVUE4:12:39
185MarisaChin1020F3034FHONOLULU4:12:55
1387GaryMansfield1021M6569MLIVERMORE4:13:04
815LeslieFitzgerald Doll1022F4549FHONOLULU4:13:24
1240LauriePoeschl1023F6064FSAN CARLOS4:13:45
989TaraMoore1024F5054FTOPANGA4:13:55
109ChrisAlberg1025M2529MHILO4:14:32
965LisaPerry1026F5054FCHULA VISTA4:14:50
648Per ErikBjorn-Roli1027M4044MANCHORAGE4:15:06
298CassieOstrander1028F3034FANCHORAGE4:15:26
250SamanthaBennett1029F3034FCHULA VISTA4:15:26
428RenneaGoff1030F3539FANCHORAGE4:15:36
1429DieterHeycke1031M75PLMHONOLULU4:15:46
1215JeffChomyn1032M5559MWOODBRIDGE4:16:09
424AngelaBottalico1033F3539FKINGSTON4:16:09
955LisaMarquez1034F5054FCAPTAIN COOK4:17:09
735MaureenMurphy1035F4549FRIVERVIEW4:17:23
1107TeriWeinberg1036F5559FSHERMAN OAKS4:17:27
802MichaelRoh1037M4549MSAMMAMISH4:17:40
541AmyMartens1038F4044FSAINT LOUIS4:17:49
1142KathyMarquez1039F5559FTUCSON4:18:00
896EllieSumic1040F5054FWAIKOLOA4:18:30
582JoseGarzon1041M4044MKENMORE4:19:04
1355ArleneVaskevitch1042F6569FBELLEVUE4:19:48
1234CindyGregory1043F6064FHIGHLANDS RANCH4:19:49
986LynnJenkins1044F5054FKAILUA KONA4:19:52
1357SteveGerbson1045M6569MWOODLAND HILLS4:20:03
701LynnetteWood1046F4549FANCHORAGE4:20:34
1015AndreaBates1047F5054FRENO4:21:19
880CherylAdelmann1048F5054FWAIKOLOA4:21:21
1100TerriPardo1049F5559FWOODINVILLE4:22:05
1396GeorgeHickey1050M6569MWAIKOLOA4:22:20
711SamuelKim1051M4549MCARMEL4:22:20
990YukariNakajima1052F5054FTOKYO4:23:31
813KaylynnDutcher1053F4549FWESTLAKE VILLAG4:23:46
1377RussPhilpott1054M6569MSUNNYVALE4:24:51
771KellyBrennan1055F4549FNEWPORT BEACH4:25:13
606LoriKing1056F4044FHAMILTON4:25:48
830MioWatanabe1057F4549FTOKYO4:26:43
107DanielleTaylor1058F2529FHIGHLANDS RANCH4:26:52
256ViennaDumlao1059F3034FSAN JOSE4:26:52
1350DeborahCorral1060F6569FEAGLE RIVER4:27:17
1233AnnaCecchettini1061F6064FGREENBRAE4:27:21
136InesAlmeida Maria1062F2529FSANTA CLARA4:28:19
983DanaBostrom1063F5054FMINOCQUA4:28:45
229ChristySerpa1064F3034FKAILUA KONA4:28:48
284JessicaAnderson1065F3034FANCHORAGE4:29:16
1236ElizabethJordan1066F6064FSAN MATEO4:29:29
596YukiAgoot1067F4044FCAPTAIN COOK4:29:48
1031FrankBray1068M5054MBELLEVUE4:29:59
291AlishaKassam1069F3034FBROOKLYN4:30:35
993AnaTolentino1070F5054FLITTLETON4:30:37
637ShannanMustacci1071F4044FWASILLA4:30:43
593BrianWhitlock1072M4044MKAILUA KONA4:30:55
1314PattyCoughlin1073F6064FEVERGREEN4:31:34
1045JeffreyMcMillan1074M5054MNEWBURY PARK4:32:29
1406JoeLoschiavo1075M6569MKAMUELA4:33:38
1237LindaKahananui1076F6064FWAIKOLOA4:34:17
267DeborahTran1077F3034FLA PUENTE4:34:29
1117JoshuaKang1078M5559MLOS ANGELES4:34:49
1187RobertHoule1079M5559MLAVAL4:36:02
1095KimberlyJohnson1080F5559FOLYMPIA4:36:34
281RussellPhilpott1081M3034MSUNNYVALE4:36:51
1066KimberleyThomas1082F5559FPOMONA4:37:28
684DebbieHerrera1083F4549FDENVER4:37:40
821MollieKonopka1084F4549FHARTLAND4:38:02
992LisaSeavey1085F5054FKENT4:39:08
783AiriKopperoinen1086F4549FSAN FRANCISCO4:39:21
292AngelaKenyon1087F3034FKAILUA KONA4:39:22
1192GordonShevlin1088M5559MLIVERMORE4:40:19
1289KevinReedy1089M6064MPLEASANTON4:40:19
472CynthiaSparks1090F3539FANCHORAGE4:41:29
453LisaAn1091F3539FANCHORAGE4:41:29
527KurtSmart1092M4044MTRUCKEE4:42:10
886AudreyDuffy1093F5054FPACOIMA4:42:17
765EricWitmayer1094M4549MSAN DIEGO4:42:32
609TommyeLane1095F4044FKAILUA-KONA4:43:50
1336MarenFitzgibbons1096F6064FCARLSBAD4:43:53
1102MargaretRincon1097F5559FRIVERSIDE4:44:45
1143AddieMcEwen1098F5559FANCHORAGE4:45:12
1019LucyGomez1099F5054FSAN DIEGO4:45:24
101VictoriaFerrari1100F2529FSAN MATEO4:47:19
782TerriKelly1101F4549FPEORIA4:47:39
525KamuelaPlunkett1102M4044MCAPTAIN COOK4:47:59
190JenniferHermeyer1103F3034FSANTEE4:48:24
230ShaunaSpangenberg1104F3034FNEW YORK4:48:52
294CarynMasutomi1105F3034FKEALAKEKUA4:49:49
1405RalphJohnson1106M6569MKAILUA KONA4:50:11
1292JeanAbel1107F6064FEAGLE RIVER4:50:42
865ClaudiaWard1108F4549FPASADENA4:51:37
547SandraVander Wal1109F4044FSAN MATEO4:51:57
690MaryMartin1110F4549FOAKLAND4:52:17
1099JeanMoran1111F5559FANCHORAGE4:53:01
918JudyBryant1112F5054FHENDERSON4:54:29
1249RickMarlette1113M6064MEVERGREEN4:55:41
624ChristopherParry1114M4044MSAN FRANCISCO4:57:04
1428FrankFerren1115M75PLMKAILUA KONA4:57:06
1205SuzanneJohnson1116F5559FLOS ANGELES4:57:16
1426ErolBarbut1117M75PLMMOSCOW4:57:17
1206LeeannLeaverton1118F5559FPORTLAND4:57:17
82BereniseGuerrero1119F2529FDOWNEY4:57:38
319RachelGreathouse1120F3539FSAN JOSE4:57:57
863ElizabethTran1121F4549FSAN JOSE4:58:03
471LauraSalisbury1122F3539FVAN NUYS4:58:22
579DavidDill1123M4044MEAST PALO ALTO4:58:40
118LindaNig1124F2529FNEW YORK5:00:31
500ChristianaHarless1125F4044FLIVERMORE5:00:51
972GabeLopez1126M5054MSYLMAR5:06:00
1103KristieSmith1127F5559FLEMON GROVE5:06:30
1110JimBrady1128M5559MSAN JOSE5:08:02
1309CharlesKagan1129M6064MMILL VALLEY5:08:57
785JulieMacArthur1130F4549FBURLINGAME5:10:59
1390KatherineMapes-Resnik1131F6569FEL CERRITO5:11:08
1231S LoriBrown1132F6064FBELLEVUE5:12:04
391CasandraHuff1133F3539FVENTURA5:17:22
768WindyAlvarado1134F4549FANCHORAGE5:18:53
139MelissaBernal1135F2529FSAN DIEGO5:19:53
546AnnTruong1136F4044FSUNNYVALE5:23:31
1264SusanKonyot1137F6064FKIRKLAND5:23:35
322SarahHough-Schlosser1138F3539FHIGHLANDS RANCH5:23:38
1202PennyHale1139F5559FRAMONA5:24:02
891MichelleKnapik1140F5054FSANTA CLARA5:24:49
303JaneTran1141F3034FWEST COVINA5:26:19
469JoanneParr1142F3539FBURLINGAME5:30:28
1399MargeryAndrijasevich1143F6569FSANTA CLARA5:31:59
1339EllenLewin1144F6064FLAFAYETTE5:32:40
1401ShirleyMalcolm1145F6569FGOLD HILL5:33:08
670DevinValentin1146M4044MHILO5:36:05
495AngieBanez1147F4044FMILPITAS5:49:00
1278DennisBower1148M6064MMENLO PARK5:49:52
844JillBower1149F4549FMENLO PARK5:49:52
64KimTran1150F119FSAN JOSE5:56:44
182StacyBolt1151F3034FSAN JOSE5:59:53
577JohnBader1152M4044MSAN JOSE6:02:56
439AaronEssley1153M3539MSAN DIEGO2:23:05